createdAt,value
2018-05-02T00:00:31.464Z,37.90
2018-05-02T00:02:59.047Z,37.90
2018-05-02T00:05:26.670Z,38.00
2018-05-02T00:07:54.249Z,38.00
2018-05-02T00:10:21.861Z,38.00
2018-05-02T00:12:50.245Z,38.00
2018-05-02T00:15:17.869Z,38.00
2018-05-02T00:17:46.224Z,38.00
2018-05-02T00:20:13.849Z,38.00
2018-05-02T00:22:41.430Z,38.00
2018-05-02T00:25:09.046Z,38.00
2018-05-02T00:27:36.626Z,38.00
2018-05-02T00:30:05.026Z,37.90
2018-05-02T00:32:33.367Z,37.90
2018-05-02T00:35:00.978Z,37.90
2018-05-02T00:37:28.565Z,37.90
2018-05-02T00:39:56.190Z,37.90
2018-05-02T00:42:24.526Z,37.90
2018-05-02T00:44:52.144Z,37.90
2018-05-02T00:47:19.721Z,37.90
2018-05-02T00:49:47.345Z,37.90
2018-05-02T00:52:14.922Z,37.90
2018-05-02T00:54:43.306Z,37.90
2018-05-02T00:57:10.910Z,37.80
2018-05-02T00:59:39.289Z,37.90
2018-05-02T01:02:06.898Z,37.90
2018-05-02T01:04:35.278Z,37.90
2018-05-02T01:07:02.862Z,37.90
2018-05-02T01:09:30.486Z,37.80
2018-05-02T01:11:58.068Z,37.80
2018-05-02T01:14:25.694Z,37.90
2018-05-02T01:16:54.038Z,37.90
2018-05-02T01:19:22.411Z,37.80
2018-05-02T01:21:49.990Z,37.80
2018-05-02T01:24:17.606Z,37.80
2018-05-02T01:26:45.985Z,37.90
2018-05-02T01:29:13.567Z,37.90
2018-05-02T01:31:41.185Z,37.90
2018-05-02T01:34:09.534Z,38.00
2018-05-02T01:36:37.147Z,37.90
2018-05-02T01:39:04.807Z,37.90
2018-05-02T01:41:32.434Z,38.00
2018-05-02T01:44:00.291Z,38.00
2018-05-02T01:46:27.907Z,37.90
2018-05-02T01:49:07.270Z,37.90
2018-05-02T01:51:34.877Z,38.00
2018-05-02T01:54:02.458Z,38.70
2018-05-02T01:56:30.844Z,38.00
2018-05-02T01:58:58.428Z,38.00
2018-05-02T02:01:26.046Z,38.10
2018-05-02T02:03:53.622Z,38.00
2018-05-02T02:06:22.018Z,38.10
2018-05-02T02:08:50.378Z,38.00
2018-05-02T02:11:18.861Z,38.00
2018-05-02T02:13:46.458Z,38.00
2018-05-02T02:16:14.075Z,38.00
2018-05-02T02:18:41.649Z,38.10
2018-05-02T02:21:09.263Z,38.00
2018-05-02T02:23:37.598Z,38.10
2018-05-02T02:26:05.197Z,38.10
2018-05-02T02:28:32.807Z,38.10
2018-05-02T02:31:00.447Z,38.10
2018-05-02T02:33:28.022Z,38.10
2018-05-02T02:35:55.634Z,38.10
2018-05-02T02:38:23.207Z,38.10
2018-05-02T02:40:50.821Z,38.10
2018-05-02T02:43:18.398Z,38.10
2018-05-02T02:45:46.012Z,38.10
2018-05-02T02:48:13.590Z,38.10
2018-05-02T02:50:41.211Z,38.10
2018-05-02T02:53:08.791Z,38.10
2018-05-02T02:55:37.163Z,38.10
2018-05-02T02:58:04.738Z,38.10
2018-05-02T03:00:32.346Z,38.10
2018-05-02T03:03:00.681Z,38.20
2018-05-02T03:05:28.267Z,38.20
2018-05-02T03:07:55.887Z,38.20
2018-05-02T03:10:23.462Z,38.20
2018-05-02T03:12:51.079Z,38.20
2018-05-02T03:15:18.666Z,38.10
2018-05-02T03:17:46.279Z,38.20
2018-05-02T03:20:13.847Z,38.20
2018-05-02T03:22:42.227Z,38.20
2018-05-02T03:25:09.813Z,38.20
2018-05-02T03:27:37.426Z,38.20
2018-05-02T03:30:05.772Z,38.30
2018-05-02T03:32:33.399Z,38.30
2018-05-02T03:35:00.973Z,38.30
2018-05-02T03:37:28.578Z,38.30
2018-05-02T03:39:56.979Z,38.40
2018-05-02T03:42:24.571Z,38.30
2018-05-02T03:44:52.911Z,38.40
2018-05-02T03:47:20.528Z,38.30
2018-05-02T03:49:48.110Z,38.40
2018-05-02T03:52:15.726Z,38.40
2018-05-02T03:54:44.071Z,38.50
2018-05-02T03:57:11.709Z,38.50
2018-05-02T03:59:51.930Z,38.50
2018-05-02T04:02:31.389Z,38.40
2018-05-02T04:05:11.005Z,38.50
2018-05-02T04:07:38.634Z,38.60
2018-05-02T04:10:06.307Z,38.60
2018-05-02T04:12:34.710Z,38.60
2018-05-02T04:15:03.136Z,38.60
2018-05-02T04:17:30.745Z,38.50
2018-05-02T04:19:58.327Z,38.50
2018-05-02T04:22:25.940Z,38.60
2018-05-02T04:24:53.518Z,38.60
2018-05-02T04:27:21.127Z,38.60
2018-05-02T04:29:48.704Z,38.60
2018-05-02T04:32:17.105Z,38.70
2018-05-02T04:34:44.686Z,38.60
2018-05-02T04:37:12.303Z,39.50
2018-05-02T04:39:39.878Z,38.60
2018-05-02T04:42:08.248Z,38.70
2018-05-02T04:44:35.827Z,38.60
2018-05-02T04:47:03.446Z,38.70
2018-05-02T04:49:31.795Z,38.70
2018-05-02T04:52:00.138Z,38.70
2018-05-02T04:54:27.765Z,38.60
2018-05-02T04:56:56.107Z,38.70
2018-05-02T04:59:23.728Z,38.70
2018-05-02T05:01:52.088Z,38.80
2018-05-02T05:04:19.705Z,38.70
2018-05-02T05:06:48.052Z,39.00
2018-05-02T05:09:15.666Z,38.70
2018-05-02T05:11:43.258Z,38.80
2018-05-02T05:14:11.634Z,38.80
2018-05-02T05:16:39.982Z,38.80
2018-05-02T05:19:08.366Z,38.80
2018-05-02T05:21:35.948Z,38.80
2018-05-02T05:24:04.327Z,38.80
2018-05-02T05:26:31.902Z,38.80
2018-05-02T05:28:59.512Z,38.90
2018-05-02T05:31:27.098Z,39.00
2018-05-02T05:33:54.706Z,38.90
2018-05-02T05:36:22.286Z,39.00
2018-05-02T05:38:49.902Z,38.90
2018-05-02T05:41:18.243Z,39.00
2018-05-02T05:43:45.904Z,39.00
2018-05-02T05:46:13.479Z,39.00
2018-05-02T05:48:41.847Z,39.00
2018-05-02T05:51:09.423Z,39.00
2018-05-02T05:53:37.025Z,39.10
2018-05-02T05:56:04.626Z,39.10
2018-05-02T05:58:32.999Z,39.30
2018-05-02T06:01:00.571Z,39.10
2018-05-02T06:03:28.183Z,39.10
2018-05-02T06:05:55.753Z,39.20
2018-05-02T06:08:23.361Z,39.10
2018-05-02T06:10:50.930Z,39.10
2018-05-02T06:13:18.542Z,39.20
2018-05-02T06:15:46.885Z,39.30
2018-05-02T06:18:14.498Z,39.20
2018-05-02T06:20:42.079Z,39.30
2018-05-02T06:23:09.685Z,39.40
2018-05-02T06:25:37.285Z,39.40
2018-05-02T06:28:05.658Z,39.60
2018-05-02T06:30:33.521Z,39.50
2018-05-02T06:33:01.118Z,39.60
2018-05-02T06:35:28.763Z,39.60
2018-05-02T06:37:57.302Z,39.60
2018-05-02T06:40:24.763Z,39.60
2018-05-02T06:42:52.338Z,39.70
2018-05-02T06:45:20.255Z,39.70
2018-05-02T06:47:47.866Z,39.80
2018-05-02T06:50:15.844Z,39.80
2018-05-02T06:52:43.430Z,39.70
2018-05-02T06:55:11.044Z,39.80
2018-05-02T06:57:38.614Z,39.90
2018-05-02T07:00:06.240Z,39.90
2018-05-02T07:02:34.582Z,40.00
2018-05-02T07:05:02.190Z,39.90
2018-05-02T07:07:29.761Z,40.00
2018-05-02T07:09:57.366Z,40.00
2018-05-02T07:12:24.947Z,39.90
2018-05-02T07:14:52.550Z,39.90
2018-05-02T07:17:20.133Z,40.00
2018-05-02T07:19:47.739Z,40.00
2018-05-02T07:22:15.313Z,40.00
2018-05-02T07:24:43.691Z,40.10
2018-05-02T07:27:11.270Z,40.10
2018-05-02T07:29:38.903Z,40.20
2018-05-02T07:32:07.252Z,40.30
2018-05-02T07:34:34.875Z,40.30
2018-05-02T07:37:02.455Z,40.30
2018-05-02T07:39:30.067Z,40.30
2018-05-02T07:41:58.406Z,40.50
2018-05-02T07:44:26.025Z,40.50
2018-05-02T07:46:53.625Z,40.60
2018-05-02T07:49:21.990Z,41.20
2018-05-02T07:51:49.574Z,40.40
2018-05-02T07:54:17.191Z,40.40
2018-05-02T07:56:44.767Z,40.20
2018-05-02T07:59:12.347Z,40.20
2018-05-02T08:01:39.967Z,40.40
2018-05-02T08:04:07.539Z,40.50
2018-05-02T08:06:35.914Z,40.50
2018-05-02T08:09:03.593Z,40.40
2018-05-02T08:11:31.194Z,40.40
2018-05-02T08:13:58.775Z,40.50
2018-05-02T08:16:26.439Z,40.40
2018-05-02T08:18:54.754Z,40.50
2018-05-02T08:21:22.357Z,40.40
2018-05-02T08:23:49.931Z,40.30
2018-05-02T08:26:17.550Z,40.10
2018-05-02T08:28:45.890Z,40.20
2018-05-02T08:31:13.502Z,40.20
2018-05-02T08:33:41.087Z,40.20
2018-05-02T08:36:08.702Z,40.30
2018-05-02T08:38:37.046Z,40.30
2018-05-02T08:41:04.662Z,40.30
2018-05-02T08:43:32.241Z,40.30
2018-05-02T08:45:59.864Z,40.30
2018-05-02T08:48:28.217Z,40.50
2018-05-02T08:50:55.831Z,40.50
2018-05-02T08:53:23.406Z,40.50
2018-05-02T08:55:51.018Z,40.50
2018-05-02T08:58:19.366Z,40.60
2018-05-02T09:00:47.010Z,40.60
2018-05-02T09:03:15.349Z,40.50
2018-05-02T09:05:42.962Z,40.50
2018-05-02T09:08:10.560Z,40.50
2018-05-02T09:10:38.175Z,40.50
2018-05-02T09:13:06.614Z,40.60
2018-05-02T09:15:34.337Z,40.50
2018-05-02T09:18:01.915Z,41.30
2018-05-02T09:20:29.530Z,40.60
2018-05-02T09:22:57.874Z,40.60
2018-05-02T09:25:25.490Z,40.60
2018-05-02T09:27:53.066Z,40.50
2018-05-02T09:30:20.925Z,40.50
2018-05-02T09:32:48.546Z,40.60
2018-05-02T09:35:16.396Z,41.20
2018-05-02T09:37:44.006Z,40.60
2018-05-02T09:40:11.584Z,40.40
2018-05-02T09:42:39.202Z,40.60
2018-05-02T09:45:07.050Z,40.60
2018-05-02T09:47:34.666Z,40.60
2018-05-02T09:50:02.711Z,40.60
2018-05-02T09:52:30.327Z,40.50
2018-05-02T09:54:57.909Z,40.60
2018-05-02T09:57:25.530Z,40.60
2018-05-02T09:59:53.973Z,40.60
2018-05-02T10:02:21.594Z,40.60
2018-05-02T10:04:49.169Z,40.50
2018-05-02T10:07:16.797Z,40.60
2018-05-02T10:09:44.388Z,40.60
2018-05-02T10:12:12.768Z,40.60
2018-05-02T10:14:40.350Z,40.50
2018-05-02T10:17:07.990Z,40.70
2018-05-02T10:19:35.595Z,40.60
2018-05-02T10:22:03.208Z,40.70
2018-05-02T10:24:30.790Z,40.70
2018-05-02T10:26:58.406Z,40.60
2018-05-02T10:29:26.817Z,40.70
2018-05-02T10:31:55.197Z,40.70
2018-05-02T10:34:22.782Z,40.60
2018-05-02T10:36:50.405Z,40.70
2018-05-02T10:39:17.994Z,40.70
2018-05-02T10:41:45.610Z,40.70
2018-05-02T10:44:13.971Z,40.70
2018-05-02T10:46:41.595Z,40.70
2018-05-02T10:49:09.206Z,40.70
2018-05-02T10:51:36.862Z,40.70
2018-05-02T10:54:04.438Z,40.70
2018-05-02T10:56:32.014Z,40.70
2018-05-02T10:58:59.630Z,40.70
2018-05-02T11:01:27.206Z,40.80
2018-05-02T11:03:54.814Z,40.80
2018-05-02T11:06:23.167Z,40.80
2018-05-02T11:08:50.786Z,40.90
2018-05-02T11:11:18.371Z,40.90
2018-05-02T11:13:46.013Z,40.80
2018-05-02T11:16:13.642Z,40.80
2018-05-02T11:18:41.313Z,40.80
2018-05-02T11:21:08.894Z,41.50
2018-05-02T11:23:36.507Z,40.90
2018-05-02T11:26:04.091Z,40.90
2018-05-02T11:28:31.778Z,40.90
2018-05-02T11:30:59.323Z,40.90
2018-05-02T11:33:26.937Z,41.00
2018-05-02T11:35:54.518Z,41.00
2018-05-02T11:38:22.137Z,41.00
2018-05-02T11:40:49.722Z,41.00
2018-05-02T11:43:18.110Z,40.60
2018-05-02T11:45:46.565Z,41.10
2018-05-02T11:48:14.186Z,41.10
2018-05-02T11:50:41.774Z,41.10
2018-05-02T11:53:09.391Z,41.10
2018-05-02T11:55:36.975Z,41.10
2018-05-02T11:58:04.592Z,41.10
2018-05-02T12:00:32.503Z,41.10
2018-05-02T12:03:00.892Z,41.40
2018-05-02T12:05:29.518Z,41.30
2018-05-02T12:07:57.095Z,41.20
2018-05-02T12:10:24.724Z,41.20
2018-05-02T12:12:52.350Z,41.20
2018-05-02T12:15:20.160Z,41.20
2018-05-02T12:17:47.738Z,41.20
2018-05-02T12:20:15.808Z,41.20
2018-05-02T12:22:44.150Z,41.30
2018-05-02T12:25:11.801Z,41.30
2018-05-02T12:27:40.145Z,41.30
2018-05-02T12:30:08.706Z,41.30
2018-05-02T12:32:37.066Z,41.30
2018-05-02T12:35:05.134Z,41.30
2018-05-02T12:37:32.718Z,41.30
2018-05-02T12:42:38.890Z,41.40
2018-05-02T12:45:06.591Z,41.30
2018-05-02T12:47:34.166Z,41.30
2018-05-02T12:50:02.680Z,41.40
2018-05-02T12:52:31.039Z,41.30
2018-05-02T12:54:58.649Z,41.30
2018-05-02T12:57:26.227Z,41.40
2018-05-02T12:59:54.030Z,41.30
2018-05-02T13:02:21.611Z,41.30
2018-05-02T13:04:49.230Z,41.30
2018-05-02T13:07:17.576Z,41.40
2018-05-02T13:09:45.190Z,41.40
2018-05-02T13:12:12.766Z,41.40
2018-05-02T13:14:40.395Z,41.40
2018-05-02T13:17:07.970Z,41.40
2018-05-02T13:19:36.346Z,41.40
2018-05-02T13:22:03.987Z,41.40
2018-05-02T13:24:31.606Z,41.40
2018-05-02T13:26:59.190Z,41.40
2018-05-02T13:29:26.810Z,41.50
2018-05-02T13:31:55.166Z,41.60
2018-05-02T13:34:22.787Z,41.50
2018-05-02T13:36:50.371Z,41.50
2018-05-02T13:39:18.722Z,42.30
2018-05-02T13:41:46.337Z,41.60
2018-05-02T13:44:14.715Z,42.00
2018-05-02T13:46:42.335Z,41.70
2018-05-02T13:49:11.478Z,41.90
2018-05-02T13:51:39.061Z,41.80
2018-05-02T13:54:07.408Z,41.90
2018-05-02T13:56:35.032Z,41.80
2018-05-02T13:59:02.619Z,41.90
2018-05-02T14:01:30.259Z,41.80
2018-05-02T14:03:58.619Z,41.80
2018-05-02T14:06:26.234Z,41.80
2018-05-02T14:08:54.590Z,42.00
2018-05-02T14:11:22.234Z,42.00
2018-05-02T14:13:49.818Z,42.70
2018-05-02T14:16:17.445Z,42.00
2018-05-02T14:18:45.027Z,42.00
2018-05-02T14:21:12.642Z,42.70
2018-05-02T14:23:40.991Z,42.10
2018-05-02T14:26:08.615Z,42.10
2018-05-02T14:28:36.193Z,42.10
2018-05-02T14:31:03.807Z,42.00
2018-05-02T14:33:32.154Z,42.10
2018-05-02T14:35:59.770Z,42.00
2018-05-02T14:38:27.369Z,42.00
2018-05-02T14:40:55.009Z,42.10
2018-05-02T14:43:22.588Z,42.00
2018-05-02T14:45:50.202Z,42.00
2018-05-02T14:48:17.826Z,42.00
2018-05-02T14:50:45.446Z,42.00
2018-05-02T14:53:13.030Z,42.10
2018-05-02T14:55:40.640Z,42.10
2018-05-02T14:58:08.221Z,42.10
2018-05-02T15:00:35.812Z,42.10
2018-05-02T15:03:10.802Z,42.10
2018-05-02T15:05:38.465Z,42.10
2018-05-02T15:08:06.082Z,42.10
2018-05-02T15:10:33.666Z,42.10
2018-05-02T15:13:01.297Z,42.10
2018-05-02T15:15:29.112Z,42.10
2018-05-02T15:17:56.811Z,42.10
2018-05-02T15:20:24.597Z,41.80
2018-05-02T15:22:52.986Z,42.20
2018-05-02T15:25:20.569Z,41.80
2018-05-02T15:27:48.214Z,42.10
2018-05-02T15:30:16.107Z,42.90
2018-05-02T15:32:43.718Z,42.20
2018-05-02T15:35:11.696Z,42.20
2018-05-02T15:37:39.325Z,42.20
2018-05-02T15:40:07.737Z,42.40
2018-05-02T15:42:36.129Z,42.30
2018-05-02T15:45:03.710Z,42.30
2018-05-02T15:47:32.100Z,42.60
2018-05-02T15:49:59.717Z,42.30
2018-05-02T15:52:28.098Z,42.40
2018-05-02T15:54:55.681Z,42.30
2018-05-02T15:57:23.318Z,42.30
2018-05-02T15:59:50.905Z,42.30
2018-05-02T16:02:18.527Z,42.30
2018-05-02T16:04:46.138Z,42.30
2018-05-02T16:07:14.509Z,42.30
2018-05-02T16:09:42.095Z,42.30
2018-05-02T16:12:09.710Z,42.40
2018-05-02T16:14:38.070Z,42.40
2018-05-02T16:17:05.686Z,42.40
2018-05-02T16:19:33.287Z,42.40
2018-05-02T16:22:01.666Z,42.50
2018-05-02T16:24:29.287Z,42.40
2018-05-02T16:26:57.642Z,42.40
2018-05-02T16:29:25.258Z,42.30
2018-05-02T16:31:52.847Z,42.30
2018-05-02T16:34:21.234Z,42.40
2018-05-02T16:36:48.872Z,42.40
2018-05-02T16:39:17.269Z,42.50
2018-05-02T16:41:45.628Z,42.40
2018-05-02T16:44:13.247Z,42.30
2018-05-02T16:46:41.599Z,42.40
2018-05-02T16:49:09.237Z,42.30
2018-05-02T16:51:36.816Z,42.40
2018-05-02T16:54:04.426Z,42.30
2018-05-02T16:56:32.136Z,42.30
2018-05-02T16:58:59.727Z,42.40
2018-05-02T17:01:28.090Z,42.40
2018-05-02T17:03:55.707Z,42.30
2018-05-02T17:06:23.441Z,42.40
2018-05-02T17:08:51.832Z,42.30
2018-05-02T17:11:19.415Z,42.30
2018-05-02T17:13:47.058Z,42.30
2018-05-02T17:16:14.647Z,42.40
2018-05-02T17:18:42.265Z,42.30
2018-05-02T17:21:09.847Z,42.30
2018-05-02T17:23:37.468Z,42.40
2018-05-02T17:26:05.050Z,43.10
2018-05-02T17:28:32.670Z,42.40
2018-05-02T17:31:00.250Z,42.40
2018-05-02T17:33:27.865Z,42.40
2018-05-02T17:35:55.446Z,42.40
2018-05-02T17:38:23.068Z,42.50
2018-05-02T17:40:51.472Z,42.50
2018-05-02T17:43:19.084Z,42.40
2018-05-02T17:45:46.667Z,42.50
2018-05-02T17:48:14.250Z,42.50
2018-05-02T17:50:41.874Z,42.60
2018-05-02T17:53:09.458Z,42.50
2018-05-02T17:55:37.078Z,42.70
2018-05-02T17:58:05.506Z,42.60
2018-05-02T18:00:33.360Z,42.50
2018-05-02T18:03:00.967Z,42.60
2018-05-02T18:05:29.755Z,42.60
2018-05-02T18:07:57.342Z,42.60
2018-05-02T18:10:25.063Z,42.60
2018-05-02T18:12:53.415Z,42.80
2018-05-02T18:15:21.495Z,42.80
2018-05-02T18:17:49.069Z,42.90
2018-05-02T18:20:16.875Z,42.90
2018-05-02T18:22:44.528Z,42.90
2018-05-02T18:25:12.106Z,42.90
2018-05-02T18:27:39.691Z,42.90
2018-05-02T18:30:08.178Z,43.10
2018-05-02T18:32:35.777Z,43.10
2018-05-02T18:35:05.006Z,43.10
2018-05-02T18:37:33.350Z,43.00
2018-05-02T18:40:00.973Z,42.90
2018-05-02T18:42:29.344Z,42.50
2018-05-02T18:44:56.984Z,42.90
2018-05-02T18:47:25.330Z,43.00
2018-05-02T18:49:52.951Z,42.90
2018-05-02T18:52:20.590Z,42.80
2018-05-02T18:54:48.210Z,42.50
2018-05-02T18:57:15.791Z,43.00
2018-05-02T18:59:43.407Z,43.00
2018-05-02T19:02:11.765Z,43.00
2018-05-02T19:04:39.398Z,43.00
2018-05-02T19:07:07.738Z,43.20
2018-05-02T19:09:35.336Z,43.20
2018-05-02T19:12:02.952Z,43.10
2018-05-02T19:14:30.590Z,43.10
2018-05-02T19:16:58.237Z,43.10
2018-05-02T19:19:32.287Z,43.10
2018-05-02T19:22:00.065Z,43.10
2018-05-02T19:24:34.022Z,43.60
2018-05-02T19:27:01.633Z,43.60
2018-05-02T19:29:29.220Z,43.50
2018-05-02T19:32:02.582Z,43.60
2018-05-02T19:34:30.929Z,43.50
2018-05-02T19:36:58.545Z,43.50
2018-05-02T19:39:26.158Z,43.50
2018-05-02T19:42:00.272Z,43.50
2018-05-02T19:44:27.850Z,43.50
2018-05-02T19:46:55.462Z,43.50
2018-05-02T19:49:23.820Z,43.80
2018-05-02T19:51:57.210Z,43.70
2018-05-02T19:54:25.021Z,43.50
2018-05-02T19:56:52.718Z,43.40
2018-05-02T19:59:20.411Z,43.60
2018-05-02T20:01:53.747Z,43.30
2018-05-02T20:04:21.330Z,43.60
2018-05-02T20:06:48.942Z,43.30
2018-05-02T20:09:22.931Z,43.50
2018-05-02T20:11:56.183Z,43.50
2018-05-02T20:14:23.766Z,43.70
2018-05-02T20:16:51.406Z,43.50
2018-05-02T20:19:18.990Z,43.70
2018-05-02T20:21:46.597Z,43.70
2018-05-02T20:24:14.166Z,43.80
2018-05-02T20:26:41.787Z,44.10
2018-05-02T20:29:09.362Z,43.70
2018-05-02T20:31:36.967Z,43.70
2018-05-02T20:34:04.548Z,43.50
2018-05-02T20:36:32.187Z,43.60
2018-05-02T20:38:59.788Z,43.40
2018-05-02T20:41:27.409Z,43.70
2018-05-02T20:43:54.982Z,43.50
2018-05-02T20:46:22.609Z,43.60
2018-05-02T20:48:50.207Z,43.50
2018-05-02T20:51:17.827Z,43.50
2018-05-02T20:53:45.407Z,43.40
2018-05-02T20:56:13.018Z,43.70
2018-05-02T20:58:41.403Z,43.90
2018-05-02T21:01:10.490Z,43.90
2018-05-02T21:03:38.098Z,43.80
2018-05-02T21:06:05.670Z,43.90
2018-05-02T21:08:33.287Z,43.90
2018-05-02T21:11:00.866Z,43.90
2018-05-02T21:13:28.759Z,43.90
2018-05-02T21:15:56.345Z,43.80
2018-05-02T21:18:23.957Z,43.70
2018-05-02T21:20:52.297Z,44.20
2018-05-02T21:23:19.897Z,44.20
2018-05-02T21:25:47.468Z,43.60
2018-05-02T21:28:15.072Z,43.60
2018-05-02T21:30:42.647Z,43.40
2018-05-02T21:33:10.252Z,43.30
2018-05-02T21:35:37.821Z,43.30
2018-05-02T21:38:05.425Z,43.20
2018-05-02T21:40:33.003Z,43.10
2018-05-02T21:43:00.609Z,43.20
2018-05-02T21:45:28.949Z,43.20
2018-05-02T21:47:56.559Z,43.10
2018-05-02T21:50:24.134Z,43.20
2018-05-02T21:52:52.506Z,43.20
2018-05-02T21:55:20.073Z,43.20
2018-05-02T21:57:48.468Z,43.20
2018-05-02T22:00:16.931Z,43.20
2018-05-02T22:02:44.534Z,43.10
2018-05-02T22:05:12.108Z,43.20
2018-05-02T22:07:39.713Z,43.20
2018-05-02T22:10:07.281Z,43.20
2018-05-02T22:12:34.894Z,43.20
2018-05-02T22:15:03.230Z,43.10
2018-05-02T22:17:30.830Z,43.10
2018-05-02T22:19:58.397Z,43.20
2018-05-02T22:22:26.001Z,43.10
2018-05-02T22:24:53.570Z,43.20
2018-05-02T22:27:21.143Z,43.10
2018-05-02T22:29:48.759Z,43.10
2018-05-02T22:32:16.334Z,43.10
2018-05-02T22:34:43.945Z,43.10
2018-05-02T22:37:11.519Z,43.10
2018-05-02T22:39:39.126Z,43.30
2018-05-02T22:42:06.698Z,43.40
2018-05-02T22:44:34.307Z,43.90
2018-05-02T22:47:01.886Z,43.30
2018-05-02T22:49:29.502Z,43.30
2018-05-02T22:51:57.121Z,43.30
2018-05-02T22:54:24.731Z,43.50
2018-05-02T22:56:52.314Z,43.20
2018-05-02T22:59:20.738Z,43.30
2018-05-02T23:01:49.083Z,43.20
2018-05-02T23:04:17.726Z,43.20
2018-05-02T23:06:45.297Z,43.20
2018-05-02T23:09:12.911Z,43.20
2018-05-02T23:11:40.494Z,43.40
2018-05-02T23:14:08.112Z,43.20
2018-05-02T23:16:35.689Z,43.30
2018-05-02T23:19:04.066Z,43.30
2018-05-02T23:21:31.646Z,43.30
2018-05-02T23:23:59.253Z,43.30
2018-05-02T23:26:27.598Z,43.20
2018-05-02T23:28:55.202Z,43.20
2018-05-02T23:31:22.780Z,43.40
2018-05-02T23:33:50.394Z,43.40
2018-05-02T23:36:17.973Z,43.30
2018-05-02T23:38:45.612Z,43.10
2018-05-02T23:41:13.210Z,43.90
2018-05-02T23:43:40.834Z,43.10
2018-05-02T23:46:08.414Z,43.10
2018-05-02T23:48:36.025Z,43.10
2018-05-02T23:51:04.372Z,43.10
2018-05-02T23:53:31.950Z,43.10
2018-05-02T23:55:59.562Z,43.10
2018-05-02T23:58:27.136Z,43.10
